Time;durP1;ratioP1;P1;durP2;ratioP2;P2;SDS_P1;SDS_P2;PMS_P1;PMS_P2;Temp;Humidity;BMP_temperature;BMP_pressure;BME280_temperature;BME280_humidity;BME280_pressure;Samples;Min_cycle;Max_cycle;Signal;HPM_P1;HPM_P2
2020/12/11 00:01:36;;;;;;;29.13;18.17;;;;;;;-0.11;86.83;99119.20;1778638;80;25107;-75
2020/12/11 00:04:02;;;;;;;26.17;16.37;;;;;;;-0.12;86.75;99108.45;1743759;80;25238;-75
2020/12/11 00:06:29;;;;;;;34.63;22.50;;;;;;;-0.14;86.79;99105.11;1783686;80;25076;-76
2020/12/11 00:08:56;;;;;;;30.23;20.07;;;;;;;-0.13;86.90;99098.58;1759444;79;25718;-76
2020/12/11 00:11:28;;;;;;;30.00;18.97;;;;;;;-0.04;87.00;99095.59;1753651;81;25354;-76
2020/12/11 00:13:56;;;;;;;31.23;19.93;;;;;;;0.02;86.85;99097.52;1753544;81;25405;-76
2020/12/11 00:16:23;;;;;;;28.30;18.30;;;;;;;0.01;86.79;99099.27;1753648;81;25785;-75
2020/12/11 00:18:50;;;;;;;30.00;19.30;;;;;;;0.02;86.56;99096.23;1753604;81;25214;-76
2020/12/11 00:21:16;;;;;;;28.70;18.70;;;;;;;0.05;86.49;99096.10;1753675;81;25123;-75
2020/12/11 00:23:43;;;;;;;30.13;18.97;;;;;;;0.08;85.83;99098.56;1753593;81;25729;-75
2020/12/11 00:26:10;;;;;;;28.90;18.77;;;;;;;0.05;86.03;99106.45;1753615;81;25211;-75
2020/12/11 00:28:36;;;;;;;27.57;18.37;;;;;;;-0.01;86.09;99105.80;1753741;81;25215;-75
2020/12/11 00:31:03;;;;;;;28.37;17.97;;;;;;;-0.04;86.15;99108.97;1753498;81;25765;-75
2020/12/11 00:33:30;;;;;;;28.63;18.03;;;;;;;-0.07;86.17;99112.55;1753605;81;25287;-75
2020/12/11 00:35:56;;;;;;;28.63;18.87;;;;;;;-0.07;86.20;99109.96;1753687;81;25319;-75
2020/12/11 00:38:23;;;;;;;27.67;18.07;;;;;;;-0.06;86.21;99106.45;1753651;81;25329;-75
2020/12/11 00:40:50;;;;;;;27.57;17.10;;;;;;;-0.06;86.12;99107.75;1753666;81;25222;-75
2020/12/11 00:43:16;;;;;;;28.27;17.77;;;;;;;-0.10;86.04;99110.09;1753488;81;25705;-75
2020/12/11 00:45:43;;;;;;;27.03;17.23;;;;;;;-0.13;86.09;99114.55;1753697;81;25215;-75
2020/12/11 00:48:10;;;;;;;27.90;17.13;;;;;;;-0.15;86.14;99107.29;1753737;81;25203;-76
2020/12/11 00:50:36;;;;;;;23.10;15.33;;;;;;;-0.17;86.24;99110.40;1753591;81;25615;-75
2020/12/11 00:53:04;;;;;;;26.83;17.33;;;;;;;-0.16;86.22;99114.67;1753469;81;25628;-75
2020/12/11 00:55:32;;;;;;;27.10;17.07;;;;;;;-0.17;86.35;99109.10;1753570;81;25484;-75
2020/12/11 00:57:59;;;;;;;28.77;17.30;;;;;;;-0.20;86.29;99105.75;1753601;81;25330;-75
2020/12/11 01:00:25;;;;;;;22.93;16.20;;;;;;;-0.19;86.31;99102.24;1753626;81;25714;-75
2020/12/11 01:02:52;;;;;;;26.23;17.27;;;;;;;-0.19;86.27;99103.53;1753596;81;25741;-75
2020/12/11 01:05:19;;;;;;;26.40;16.87;;;;;;;-0.17;86.29;99112.52;1753617;81;25310;-72
2020/12/11 01:07:45;;;;;;;25.70;17.50;;;;;;;-0.16;86.28;99114.21;1756623;80;25698;-76
2020/12/11 01:10:12;;;;;;;25.80;17.43;;;;;;;-0.15;86.26;99121.08;1764351;81;25631;-75
2020/12/11 01:12:39;;;;;;;24.80;16.53;;;;;;;-0.12;86.32;99120.09;1764334;80;25382;-75
2020/12/11 01:15:06;;;;;;;24.70;17.13;;;;;;;-0.14;86.18;99117.56;1764463;80;25721;-74
2020/12/11 01:17:32;;;;;;;29.07;17.70;;;;;;;-0.16;86.12;99113.38;1734356;81;25084;-75
2020/12/11 01:19:59;;;;;;;27.17;17.67;;;;;;;-0.18;86.17;99122.48;1764412;80;25290;-74
2020/12/11 01:22:26;;;;;;;27.50;16.77;;;;;;;-0.15;86.16;99110.73;1764358;80;25314;-75
2020/12/11 01:24:52;;;;;;;27.77;17.03;;;;;;;-0.17;86.07;99112.52;1764361;80;25278;-74
2020/12/11 01:27:19;;;;;;;26.43;17.63;;;;;;;-0.16;86.15;99110.80;1764345;80;25286;-75
2020/12/11 01:29:45;;;;;;;24.93;15.50;;;;;;;-0.16;86.17;99105.16;1764345;81;25258;-76
2020/12/11 01:32:12;;;;;;;25.17;16.50;;;;;;;-0.13;86.15;99110.21;1764214;80;25643;-76
2020/12/11 01:34:39;;;;;;;25.93;17.03;;;;;;;-0.15;86.06;99099.53;1764414;80;25214;-76
2020/12/11 01:37:05;;;;;;;26.73;16.47;;;;;;;-0.14;86.07;99109.81;1764335;80;25760;-76
2020/12/11 01:39:33;;;;;;;23.60;14.93;;;;;;;-0.15;86.05;99109.87;1764363;81;25206;-76
2020/12/11 01:42:00;;;;;;;27.67;18.00;;;;;;;-0.17;86.00;99102.18;1764367;81;25710;-76
2020/12/11 01:44:26;;;;;;;23.93;15.57;;;;;;;-0.18;86.01;99100.52;1764436;80;25771;-77
2020/12/11 01:46:56;;;;;;;28.27;18.13;;;;;;;-0.19;85.96;99096.24;1764330;81;25273;-79
2020/12/11 01:49:23;;;;;;;27.40;17.77;;;;;;;-0.22;85.94;99098.52;1764374;80;25772;-75
2020/12/11 01:51:52;;;;;;;31.97;20.50;;;;;;;-0.21;85.98;99099.35;1734310;81;25069;-77
2020/12/11 01:54:19;;;;;;;24.67;16.77;;;;;;;-0.20;86.06;99099.75;1764284;81;25278;-76
2020/12/11 01:57:03;;;;;;;26.13;17.03;;;;;;;-0.19;86.02;99097.08;1764339;80;25281;-76
2020/12/11 01:59:39;;;;;;;24.90;16.60;;;;;;;-0.18;86.01;99096.64;1764365;80;25688;-76
2020/12/11 02:02:06;;;;;;;24.97;16.53;;;;;;;-0.19;85.92;99098.83;1764340;81;25380;-75
2020/12/11 02:04:34;;;;;;;26.10;16.93;;;;;;;-0.21;86.01;99091.59;1764345;80;25310;-74
2020/12/11 02:07:02;;;;;;;26.17;17.03;;;;;;;-0.17;86.06;99093.59;1764301;81;25283;-75
2020/12/11 02:09:33;;;;;;;29.83;18.37;;;;;;;-0.15;85.96;99098.23;1764385;80;25298;-76
2020/12/11 02:12:01;;;;;;;25.17;16.27;;;;;;;-0.16;85.98;99096.12;1764375;81;25334;-76
2020/12/11 02:14:28;;;;;;;26.73;16.63;;;;;;;-0.15;85.99;99095.66;1764351;80;25792;-75
2020/12/11 02:16:57;;;;;;;27.47;16.80;;;;;;;-0.17;85.96;99094.42;1764307;80;25321;-76
2020/12/11 02:19:25;;;;;;;27.53;17.53;;;;;;;-0.20;85.92;99089.41;1764380;81;25219;-75
2020/12/11 02:21:52;;;;;;;25.27;16.63;;;;;;;-0.18;86.00;99095.34;1764288;80;25147;-75
2020/12/11 02:24:18;;;;;;;24.50;16.47;;;;;;;-0.16;85.96;99085.78;1764309;80;25132;-75
2020/12/11 02:26:46;;;;;;;25.87;16.73;;;;;;;-0.17;85.89;99080.67;1764348;80;25614;-75
2020/12/11 02:29:16;;;;;;;26.53;16.53;;;;;;;-0.19;85.89;99085.91;1735300;81;25151;-75
2020/12/11 02:31:43;;;;;;;24.30;15.10;;;;;;;-0.21;85.88;99074.80;1764311;80;25183;-75
2020/12/11 02:34:10;;;;;;;23.47;15.57;;;;;;;-0.23;85.85;99073.56;1764242;81;25179;-75
2020/12/11 02:36:36;;;;;;;24.77;15.73;;;;;;;-0.23;85.83;99074.86;1764425;81;25294;-74
2020/12/11 02:39:03;;;;;;;25.13;16.87;;;;;;;-0.23;85.74;99084.37;1764393;81;25702;-76
2020/12/11 02:41:30;;;;;;;25.07;16.83;;;;;;;-0.27;85.80;99076.34;1764304;80;25139;-75
2020/12/11 02:43:56;;;;;;;26.87;17.53;;;;;;;-0.29;85.81;99074.27;1764338;80;25143;-75
2020/12/11 02:46:23;;;;;;;26.00;16.93;;;;;;;-0.29;85.83;99076.86;1764195;80;25357;-75
2020/12/11 02:48:50;;;;;;;28.80;18.07;;;;;;;-0.30;85.85;99069.57;1764343;80;25286;-76
2020/12/11 02:51:16;;;;;;;26.77;16.67;;;;;;;-0.31;85.93;99067.88;1764150;80;25562;-76
2020/12/11 02:53:43;;;;;;;26.27;16.43;;;;;;;-0.28;85.91;99064.34;1764442;81;25067;-76
2020/12/11 02:56:10;;;;;;;28.03;16.60;;;;;;;-0.30;85.91;99069.57;1764528;80;25137;-75
2020/12/11 02:58:36;;;;;;;25.73;17.00;;;;;;;-0.31;85.84;99069.17;1764483;80;25211;-76
2020/12/11 03:01:03;;;;;;;28.00;18.73;;;;;;;-0.33;85.86;99067.11;1764458;80;25203;-74
2020/12/11 03:03:30;;;;;;;26.73;18.20;;;;;;;-0.31;85.96;99059.30;1764403;80;25199;-75
2020/12/11 03:05:56;;;;;;;24.83;16.10;;;;;;;-0.32;85.93;99055.84;1764409;81;25270;-76
2020/12/11 03:08:23;;;;;;;27.23;17.33;;;;;;;-0.30;85.86;99058.38;1761516;80;25642;-76
2020/12/11 03:10:50;;;;;;;25.73;16.60;;;;;;;-0.35;85.89;99046.09;1753546;81;25073;-75
2020/12/11 03:13:16;;;;;;;28.40;18.37;;;;;;;-0.36;85.89;99057.36;1753748;81;25348;-76
2020/12/11 03:15:43;;;;;;;25.63;16.90;;;;;;;-0.39;85.93;99048.84;1753709;81;25215;-75
2020/12/11 03:18:10;;;;;;;28.23;18.30;;;;;;;-0.40;85.92;99040.69;1753700;81;25171;-75
2020/12/11 03:20:36;;;;;;;27.37;17.93;;;;;;;-0.39;85.96;99047.98;1753761;81;25167;-76
2020/12/11 03:23:03;;;;;;;27.17;17.63;;;;;;;-0.40;86.00;99043.73;1753511;81;25290;-76
2020/12/11 03:25:30;;;;;;;26.03;17.17;;;;;;;-0.41;86.04;99041.58;1753787;81;25203;-76
2020/12/11 03:27:56;;;;;;;30.23;18.47;;;;;;;-0.40;86.07;99036.81;1753661;81;25140;-75
2020/12/11 03:30:23;;;;;;;29.53;18.60;;;;;;;-0.39;86.06;99039.80;1753558;81;25065;-76
2020/12/11 03:32:50;;;;;;;28.27;17.47;;;;;;;-0.39;86.11;99036.34;1753640;81;25749;-75
2020/12/11 03:35:17;;;;;;;28.30;18.27;;;;;;;-0.36;86.13;99037.98;1753652;81;25251;-76
2020/12/11 03:37:43;;;;;;;29.50;18.37;;;;;;;-0.35;86.17;99035.33;1753624;81;25138;-76
2020/12/11 03:40:10;;;;;;;27.70;17.90;;;;;;;-0.33;86.18;99037.39;1753819;81;25303;-75
2020/12/11 03:42:37;;;;;;;27.80;17.67;;;;;;;-0.29;86.20;99041.97;1753631;81;25314;-76
2020/12/11 03:45:04;;;;;;;29.07;17.23;;;;;;;-0.29;86.14;99039.39;1753545;81;25551;-76
2020/12/11 03:47:31;;;;;;;30.63;19.37;;;;;;;-0.31;86.03;99046.38;1753548;81;25605;-75
2020/12/11 03:50:02;;;;;;;30.13;17.50;;;;;;;-0.34;86.06;99041.33;1753663;81;25141;-76
2020/12/11 03:52:29;;;;;;;32.47;19.37;;;;;;;-0.37;86.23;99035.83;1753674;81;25140;-76
2020/12/11 03:54:57;;;;;;;31.53;18.73;;;;;;;-0.37;86.18;99031.95;1753928;81;25187;-75
2020/12/11 03:57:23;;;;;;;33.67;20.20;;;;;;;-0.35;86.23;99034.04;1753790;81;25261;-76
2020/12/11 03:59:50;;;;;;;30.77;19.13;;;;;;;-0.34;86.26;99030.99;1753594;81;25251;-76
2020/12/11 04:02:20;;;;;;;29.00;18.50;;;;;;;-0.33;86.33;99029.64;1753642;81;25250;-75
2020/12/11 04:04:48;;;;;;;33.40;20.30;;;;;;;-0.35;86.31;99027.58;1753580;81;25690;-75
2020/12/11 04:07:15;;;;;;;33.40;20.40;;;;;;;-0.32;86.43;99025.30;1753613;81;25073;-75
2020/12/11 04:09:41;;;;;;;30.97;18.67;;;;;;;-0.30;86.41;99032.53;1760771;81;25570;-75
2020/12/11 04:12:09;;;;;;;29.33;19.47;;;;;;;-0.29;86.40;99025.17;1764310;80;25139;-75
2020/12/11 04:14:35;;;;;;;32.90;21.73;;;;;;;-0.32;86.37;99026.59;1764423;80;25229;-75
2020/12/11 04:17:02;;;;;;;31.13;19.93;;;;;;;-0.34;86.43;99026.66;1764503;81;25288;-76
2020/12/11 04:19:29;;;;;;;33.70;20.80;;;;;;;-0.33;86.35;99032.22;1764322;80;25638;-76
2020/12/11 04:21:56;;;;;;;33.43;21.33;;;;;;;-0.34;86.37;99029.70;1764447;80;25697;-75
2020/12/11 04:24:23;;;;;;;34.37;21.53;;;;;;;-0.32;86.43;99029.17;1764290;80;25214;-76
2020/12/11 04:26:50;;;;;;;33.37;21.10;;;;;;;-0.30;86.45;99023.48;1764213;81;25638;-75
2020/12/11 04:29:16;;;;;;;32.03;20.50;;;;;;;-0.30;86.42;99031.23;1764436;81;25140;-76
2020/12/11 04:31:43;;;;;;;34.70;21.77;;;;;;;-0.32;86.51;99022.72;1764296;80;25717;-76
2020/12/11 04:34:10;;;;;;;35.73;21.80;;;;;;;-0.32;86.48;99026.13;1764353;81;25222;-78
2020/12/11 04:36:37;;;;;;;36.87;22.73;;;;;;;-0.30;86.53;99019.17;1764307;81;25215;-75
2020/12/11 04:39:03;;;;;;;33.90;20.90;;;;;;;-0.27;86.59;99027.23;1764455;80;25124;-76
2020/12/11 04:41:30;;;;;;;35.87;21.80;;;;;;;-0.29;86.48;99020.00;1764323;80;25076;-76
2020/12/11 04:43:57;;;;;;;35.87;22.50;;;;;;;-0.29;86.55;99020.00;1764389;80;25147;-76
2020/12/11 04:46:27;;;;;;;33.73;20.10;;;;;;;-0.31;86.68;99016.66;1764396;80;25768;-76
2020/12/11 04:48:55;;;;;;;33.77;19.97;;;;;;;-0.33;86.65;99019.77;1764056;80;25092;-76
2020/12/11 04:51:28;;;;;;;38.37;21.23;;;;;;;-0.38;86.87;99018.20;1764372;80;25208;-75
2020/12/11 04:53:55;;;;;;;35.23;22.00;;;;;;;-0.36;86.95;99019.89;1764251;80;25167;-76
2020/12/11 04:56:22;;;;;;;31.03;19.27;;;;;;;-0.38;87.09;99022.08;1734469;81;25151;-76
2020/12/11 04:58:53;;;;;;;36.73;20.60;;;;;;;-0.30;87.10;99019.17;1764275;81;25202;-76
2020/12/11 05:01:32;;;;;;;38.97;22.57;;;;;;;-0.28;86.99;99024.28;1764346;80;25665;-76
2020/12/11 05:04:06;;;;;;;34.70;21.70;;;;;;;-0.24;87.12;99025.81;1818330;78;26531;-75
2020/12/11 05:06:33;;;;;;;38.07;21.50;;;;;;;-0.27;87.07;99018.19;1789507;80;25191;-75
2020/12/11 05:09:22;;;;;;;39.03;23.97;;;;;;;-0.27;87.12;99023.36;1789534;79;25233;-76
2020/12/11 05:11:48;;;;;;;39.63;24.03;;;;;;;-0.26;87.14;99022.00;1789600;80;25654;-76
2020/12/11 05:14:20;;;;;;;43.77;24.27;;;;;;;-0.22;87.08;99011.08;1789528;80;25261;-76
2020/12/11 05:17:04;;;;;;;40.33;23.80;;;;;;;-0.21;87.00;99008.89;1789534;80;25266;-76
2020/12/11 05:19:51;;;;;;;41.87;23.77;;;;;;;-0.26;87.04;99010.83;1789529;79;25079;-77
2020/12/11 05:22:19;;;;;;;36.27;22.27;;;;;;;-0.27;87.07;99014.31;1789367;79;25301;-76
2020/12/11 05:24:51;;;;;;;39.40;24.23;;;;;;;-0.32;87.19;99017.09;1789378;79;25348;-76
2020/12/11 05:27:40;;;;;;;40.73;24.17;;;;;;;-0.31;87.28;99018.78;1789434;80;25731;-77
2020/12/11 05:30:18;;;;;;;37.93;22.67;;;;;;;-0.28;87.37;99022.53;1789432;80;25297;-77
2020/12/11 05:32:51;;;;;;;40.20;23.37;;;;;;;-0.32;87.50;99011.09;1789414;80;25221;-76
2020/12/11 05:35:28;;;;;;;41.70;23.53;;;;;;;-0.34;87.51;99014.20;1789492;79;25281;-76
2020/12/11 05:38:05;;;;;;;41.93;23.90;;;;;;;-0.34;87.52;99018.08;1789272;79;25371;-76
2020/12/11 05:40:38;;;;;;;46.53;25.53;;;;;;;-0.32;87.58;99019.67;1789389;79;25233;-77
2020/12/11 05:43:16;;;;;;;45.57;25.67;;;;;;;-0.30;87.71;99024.77;1789275;80;25755;-76
2020/12/11 05:45:59;;;;;;;34.83;19.03;;;;;;;-0.26;87.86;99023.30;1789132;80;25228;-76
2020/12/11 05:48:37;;;;;;;41.90;24.43;;;;;;;-0.28;87.92;99026.87;1789377;80;25637;-76
2020/12/11 05:51:12;;;;;;;45.27;24.83;;;;;;;-0.29;87.99;99031.64;1765364;79;25128;-75
2020/12/11 05:53:47;;;;;;;41.03;23.93;;;;;;;-0.23;88.07;99027.05;1818275;78;26855;-76
2020/12/11 05:56:13;;;;;;;47.03;26.87;;;;;;;-0.27;88.12;99027.23;1789431;79;25309;-77
2020/12/11 05:58:41;;;;;;;46.07;25.40;;;;;;;-0.28;88.08;99022.53;1789517;80;25273;-76
2020/12/11 06:01:08;;;;;;;47.13;26.63;;;;;;;-0.24;87.93;99026.64;1789479;79;25353;-76
2020/12/11 06:03:35;;;;;;;45.00;26.20;;;;;;;-0.22;87.94;99017.53;1761515;80;25221;-77
2020/12/11 06:06:01;;;;;;;45.30;26.07;;;;;;;-0.23;88.50;99026.22;1762976;80;25718;-76
2020/12/11 06:08:28;;;;;;;40.20;22.97;;;;;;;-0.20;88.16;99030.80;1789581;80;25272;-76
2020/12/11 06:10:54;;;;;;;43.30;23.97;;;;;;;-0.17;88.35;99028.52;1789660;79;25301;-77
2020/12/11 06:13:44;;;;;;;46.37;27.50;;;;;;;-0.16;88.36;99031.50;1789493;80;25237;-77
2020/12/11 06:16:11;;;;;;;46.30;25.03;;;;;;;-0.14;88.33;99019.34;1757529;80;25297;-78
2020/12/11 06:18:37;;;;;;;47.47;26.07;;;;;;;-0.07;88.60;99023.36;1789488;80;25142;-77
2020/12/11 06:21:04;;;;;;;52.97;27.57;;;;;;;-0.04;88.38;99023.20;1788707;79;25130;-77
2020/12/11 06:23:31;;;;;;;42.80;24.70;;;;;;;-0.04;88.37;99019.32;1789528;79;25268;-77
2020/12/11 06:26:03;;;;;;;45.83;26.80;;;;;;;-0.03;88.44;99018.89;1789268;79;25347;-77
2020/12/11 06:28:45;;;;;;;51.40;27.20;;;;;;;-0.02;88.42;99023.99;1789006;79;25671;-76
2020/12/11 06:31:18;;;;;;;46.37;26.30;;;;;;;-0.02;88.43;99022.70;1789492;79;25337;-77
2020/12/11 06:33:55;;;;;;;48.93;27.60;;;;;;;-0.03;88.43;99011.96;1789531;80;25360;-78
2020/12/11 06:36:22;;;;;;;44.77;25.20;;;;;;;0.03;88.59;99013.42;1789448;79;25299;-78
2020/12/11 06:38:53;;;;;;;44.57;26.00;;;;;;;0.07;88.50;99013.69;1789360;80;25293;-78
2020/12/11 06:41:35;;;;;;;52.13;27.13;;;;;;;0.05;88.50;99014.22;1789426;79;25509;-76
2020/12/11 06:44:16;;;;;;;45.47;25.50;;;;;;;0.06;88.65;99011.17;1789382;80;25684;-77
2020/12/11 06:46:42;;;;;;;47.73;26.53;;;;;;;0.05;88.60;99011.64;1789552;80;25257;-77
2020/12/11 06:49:20;;;;;;;50.90;27.57;;;;;;;0.06;88.63;99013.76;1737884;79;25750;-76
2020/12/11 06:51:52;;;;;;;49.33;25.77;;;;;;;0.07;88.71;99015.42;1749712;80;25273;-75
2020/12/11 06:54:27;;;;;;;51.17;26.17;;;;;;;0.05;88.69;99012.93;1759408;81;25802;-77
2020/12/11 06:56:56;;;;;;;47.63;27.23;;;;;;;0.06;88.89;99017.17;1764409;81;25778;-77
2020/12/11 06:59:33;;;;;;;51.77;28.07;;;;;;;0.07;88.83;99010.25;1782852;80;25233;-76
2020/12/11 07:02:10;;;;;;;49.07;26.47;;;;;;;0.11;88.89;99007.92;1733765;82;25301;-76
2020/12/11 07:04:41;;;;;;;53.90;29.33;;;;;;;0.15;88.96;99002.98;1782394;80;25079;-75
2020/12/11 07:07:08;;;;;;;56.97;31.50;;;;;;;0.12;89.09;99003.98;1733263;82;25210;-76
2020/12/11 07:09:40;;;;;;;49.27;27.20;;;;;;;0.18;89.05;99008.03;1782351;80;25323;-76
2020/12/11 07:12:09;;;;;;;64.73;33.13;;;;;;;0.23;88.98;99000.90;1733440;82;25075;-76
2020/12/11 07:14:36;;;;;;;55.33;30.27;;;;;;;0.25;89.05;98993.07;1760397;80;25106;-76
2020/12/11 07:17:04;;;;;;;58.60;30.07;;;;;;;0.27;88.99;98998.58;1733282;82;25744;-78
2020/12/11 07:19:37;;;;;;;50.37;29.00;;;;;;;0.26;89.03;98998.18;1786033;80;25721;-76
2020/12/11 07:22:05;;;;;;;54.10;30.10;;;;;;;0.28;89.13;98991.64;1733593;82;25795;-76
2020/12/11 07:24:32;;;;;;;55.10;30.97;;;;;;;0.29;89.12;98988.99;1782347;80;25740;-77
2020/12/11 07:27:01;;;;;;;57.10;30.13;;;;;;;0.29;89.15;98982.98;1733257;82;25206;-76
2020/12/11 07:29:27;;;;;;;57.90;30.33;;;;;;;0.29;89.22;98979.94;1782173;80;25609;-77
2020/12/11 07:31:55;;;;;;;56.83;29.27;;;;;;;0.29;89.19;98981.23;1733134;82;25689;-77
2020/12/11 07:34:24;;;;;;;56.30;30.33;;;;;;;0.32;89.12;98977.68;1782284;80;25226;-77
2020/12/11 07:36:56;;;;;;;58.67;31.10;;;;;;;0.34;89.17;98974.56;1733360;82;25233;-77
2020/12/11 07:39:29;;;;;;;52.03;29.40;;;;;;;0.39;89.20;98979.50;1782185;80;25684;-77
2020/12/11 07:44:37;;;;;;;50.93;30.17;;;;;;;0.52;89.23;98968.96;1818473;78;26855;-77
2020/12/11 07:47:10;;;;;;;55.33;29.63;;;;;;;0.50;89.17;98977.26;1789602;80;25257;-78
2020/12/11 07:49:46;;;;;;;49.33;28.20;;;;;;;0.50;89.17;98973.38;1789406;79;25339;-77
2020/12/11 07:54:51;;;;;;;51.13;27.57;;;;;;;0.60;89.17;98965.56;1818425;78;26765;-77
2020/12/11 07:57:20;;;;;;;52.67;29.50;;;;;;;0.56;89.25;98971.81;1763217;80;25265;-76
2020/12/11 08:00:03;;;;;;;57.93;31.30;;;;;;;0.62;89.08;98966.35;1789747;80;25320;-76
2020/12/11 08:02:34;;;;;;;48.40;28.13;;;;;;;0.64;89.11;98963.69;1765016;80;25711;-77
2020/12/11 08:05:06;;;;;;;54.97;31.67;;;;;;;0.65;89.07;98961.47;1789604;79;25190;-77
2020/12/11 08:07:32;;;;;;;49.37;28.87;;;;;;;0.64;89.12;98958.05;1789558;79;25240;-77
2020/12/11 08:10:09;;;;;;;56.90;31.23;;;;;;;0.68;89.12;98964.75;1789664;79;25246;-77
2020/12/11 08:12:36;;;;;;;58.10;31.33;;;;;;;0.72;89.22;98966.30;1789408;79;25329;-76
2020/12/11 08:15:04;;;;;;;53.67;31.50;;;;;;;0.77;89.15;98963.92;1763091;80;25301;-76
2020/12/11 08:17:31;;;;;;;48.47;27.40;;;;;;;0.82;89.17;98967.98;1789581;79;25602;-77
2020/12/11 08:20:05;;;;;;;61.30;34.27;;;;;;;0.86;89.09;98967.38;1789460;80;25293;-77
2020/12/11 08:22:36;;;;;;;56.87;34.87;;;;;;;0.88;89.04;98970.73;1789276;80;25316;-77
2020/12/11 08:25:22;;;;;;;58.87;32.27;;;;;;;0.95;89.09;98980.33;1789595;80;25217;-76
2020/12/11 08:27:50;;;;;;;53.20;30.60;;;;;;;0.95;89.03;98979.86;1789158;79;25230;-77
2020/12/11 08:30:18;;;;;;;58.63;34.27;;;;;;;0.95;88.95;98972.09;1789776;80;25337;-78
2020/12/11 08:32:47;;;;;;;55.93;32.83;;;;;;;1.05;88.99;98973.79;1789776;79;25166;-77
2020/12/11 08:35:19;;;;;;;62.87;33.23;;;;;;;1.08;88.87;98967.99;1763154;80;25312;-77
2020/12/11 08:37:54;;;;;;;62.13;34.27;;;;;;;1.13;88.82;98965.66;1789882;79;25269;-78
2020/12/11 08:40:23;;;;;;;52.77;30.03;;;;;;;1.18;88.85;98961.08;1789817;79;25791;-77
2020/12/11 08:51:05;;;;;;;60.33;33.93;;;;;;;1.35;88.61;98951.99;1731688;81;25224;-76
2020/12/11 08:53:38;;;;;;;54.07;30.47;;;;;;;1.39;88.52;98956.13;1758411;81;25701;-77
2020/12/11 08:56:07;;;;;;;53.83;31.73;;;;;;;1.48;88.47;98954.81;1758352;81;25710;-77
2020/12/11 08:58:35;;;;;;;61.23;34.50;;;;;;;1.53;88.12;98954.58;1758675;81;25231;-77
2020/12/11 09:01:04;;;;;;;56.53;32.90;;;;;;;1.58;88.19;98960.37;1759005;81;25356;-78
2020/12/11 09:03:31;;;;;;;58.90;33.03;;;;;;;1.60;88.08;98958.52;1733854;81;25681;-78
2020/12/11 09:05:58;;;;;;;59.90;34.90;;;;;;;1.63;88.09;98951.42;1733121;81;25311;-78
2020/12/11 09:08:25;;;;;;;51.30;30.67;;;;;;;1.71;88.11;98954.92;1758318;81;25697;-76
2020/12/11 09:10:52;;;;;;;49.33;29.40;;;;;;;1.78;87.97;98958.04;1758493;81;25236;-75
2020/12/11 09:13:21;;;;;;;55.70;32.17;;;;;;;1.80;87.67;98956.20;1758298;81;25311;-78
2020/12/11 09:15:48;;;;;;;61.47;34.87;;;;;;;1.83;87.70;98958.16;1731546;82;25657;-77
2020/12/11 09:18:16;;;;;;;60.20;32.27;;;;;;;1.84;87.68;98949.48;1731070;82;25358;-77
2020/12/11 09:20:44;;;;;;;60.30;37.17;;;;;;;1.87;87.48;98945.88;1731012;82;25364;-76
2020/12/11 09:23:12;;;;;;;61.13;35.97;;;;;;;1.93;87.79;98946.86;1731206;82;25365;-77
2020/12/11 09:25:39;;;;;;;57.90;36.53;;;;;;;2.01;87.62;98947.73;1731121;82;25762;-78
2020/12/11 09:28:15;;;;;;;60.90;36.90;;;;;;;2.08;87.43;98947.80;1757736;81;25343;-77
2020/12/11 09:30:41;;;;;;;63.90;38.30;;;;;;;2.13;87.40;98939.75;1731639;81;25283;-77
2020/12/11 09:35:44;;;;;;;57.13;34.80;;;;;;;2.25;87.11;98926.59;1753296;81;25315;-77
2020/12/11 09:38:11;;;;;;;59.50;35.47;;;;;;;2.28;87.00;98910.84;1757825;81;25686;-77
2020/12/11 09:40:53;;;;;;;58.73;35.63;;;;;;;2.29;86.81;98908.63;1730468;81;25303;-78
2020/12/11 09:56:29;;;;;;;57.93;35.80;;;;;;;2.15;86.58;98901.14;1731289;82;25219;-76
2020/12/11 10:04:08;;;;;;;53.17;32.47;;;;;;;2.19;86.58;98885.77;1789762;80;25197;-77
2020/12/11 10:06:35;;;;;;;50.63;31.93;;;;;;;2.18;86.63;98888.48;1763132;80;25233;-79
2020/12/11 10:09:02;;;;;;;45.13;26.73;;;;;;;2.20;86.58;98891.34;1789727;80;25300;-76
2020/12/11 10:11:29;;;;;;;52.67;31.93;;;;;;;2.23;86.68;98891.65;1789776;79;25311;-76
2020/12/11 10:16:32;;;;;;;53.47;32.83;;;;;;;2.37;86.88;98889.58;1889781;74;26756;-77
2020/12/11 10:18:59;;;;;;;45.83;28.43;;;;;;;2.42;86.99;98882.38;1858018;76;25193;-75
2020/12/11 10:21:26;;;;;;;50.63;30.10;;;;;;;2.49;86.75;98875.08;1858128;76;25669;-77
2020/12/11 10:23:52;;;;;;;48.10;30.70;;;;;;;2.51;86.63;98866.73;1858074;77;25358;-78
2020/12/11 10:26:22;;;;;;;47.50;30.80;;;;;;;2.51;86.60;98871.45;1857727;76;25235;-76
2020/12/11 10:28:53;;;;;;;50.20;30.37;;;;;;;2.51;86.60;98869.33;1858118;76;25266;-77
2020/12/11 10:31:21;;;;;;;49.53;32.00;;;;;;;2.49;86.49;98869.41;1857984;76;25292;-76
2020/12/11 10:33:48;;;;;;;56.73;33.70;;;;;;;2.47;86.54;98860.88;1857984;77;25295;-76
2020/12/11 10:36:14;;;;;;;45.63;30.13;;;;;;;2.46;86.60;98859.20;1857936;76;25207;-78
2020/12/11 10:38:41;;;;;;;43.87;27.50;;;;;;;2.49;86.59;98862.09;1857949;77;25731;-78
2020/12/11 10:41:10;;;;;;;43.53;28.43;;;;;;;2.51;86.53;98852.45;1854188;76;25624;-77
2020/12/11 10:43:37;;;;;;;44.27;26.80;;;;;;;2.51;86.42;98848.09;1794688;76;25237;-77
2020/12/11 10:46:03;;;;;;;47.10;27.73;;;;;;;2.49;86.47;98847.82;1849580;76;25249;-76
2020/12/11 10:48:31;;;;;;;48.50;29.00;;;;;;;2.51;86.47;98845.50;1849472;76;25182;-76
2020/12/11 10:50:58;;;;;;;41.33;25.53;;;;;;;2.55;86.65;98848.31;1832151;76;25093;-76
2020/12/11 10:53:24;;;;;;;43.70;27.43;;;;;;;2.63;86.63;98850.48;1816286;77;25302;-77
2020/12/11 10:55:51;;;;;;;42.20;25.67;;;;;;;2.67;86.59;98847.23;1816138;77;25184;-77
2020/12/11 10:58:18;;;;;;;42.80;27.40;;;;;;;2.70;86.63;98848.34;1816123;77;25396;-77
2020/12/11 11:00:45;;;;;;;41.60;24.77;;;;;;;2.73;86.62;98841.23;1816696;77;25316;-78
2020/12/11 11:03:11;;;;;;;62.90;43.90;;;;;;;2.80;86.47;98840.41;1816943;77;25271;-78
2020/12/11 11:05:39;;;;;;;42.00;27.73;;;;;;;2.82;86.53;98833.36;1816028;77;25543;-78
2020/12/11 11:08:06;;;;;;;43.07;26.07;;;;;;;2.90;86.54;98835.05;1816788;77;25319;-77
2020/12/11 11:10:42;;;;;;;49.57;32.67;;;;;;;3.01;86.62;98829.68;1816165;77;25251;-78
2020/12/11 11:13:23;;;;;;;39.67;27.37;;;;;;;3.08;86.46;98827.08;1815913;77;25212;-79
2020/12/11 11:15:49;;;;;;;41.37;26.37;;;;;;;3.16;86.42;98821.80;1816068;77;25315;-78
2020/12/11 11:21:03;;;;;;;37.80;22.60;;;;;;;3.34;86.42;98822.92;1815939;77;25259;-78
2020/12/11 11:26:25;;;;;;;34.37;22.13;;;;;;;3.47;85.99;98819.09;1816022;77;25125;-78
2020/12/11 11:28:46;;;;;;;34.63;22.50;;;;;;;3.47;85.66;98809.55;1815363;77;25652;-78
2020/12/11 11:31:13;;;;;;;32.53;20.90;;;;;;;3.48;85.64;98805.18;1815522;77;25188;-77
2020/12/11 11:33:40;;;;;;;34.63;22.30;;;;;;;3.56;85.38;98807.32;1815420;77;25191;-77
2020/12/11 11:36:07;;;;;;;27.47;20.10;;;;;;;3.57;85.34;98805.92;1815070;77;25284;-76
2020/12/11 11:38:34;;;;;;;28.87;18.83;;;;;;;3.61;85.26;98803.97;1788331;79;25066;-78
2020/12/11 11:41:00;;;;;;;31.07;19.73;;;;;;;3.64;85.08;98793.38;1815537;77;25723;-77
2020/12/11 11:46:12;;;;;;;25.23;17.67;;;;;;;3.69;84.92;98783.52;1815616;77;25687;-78
2020/12/11 11:48:41;;;;;;;28.30;19.03;;;;;;;3.75;84.82;98781.81;1815551;77;25654;-76
2020/12/11 11:51:20;;;;;;;23.47;16.77;;;;;;;3.73;84.83;98784.98;1815643;77;25225;-79
2020/12/11 11:53:42;;;;;;;27.43;18.43;;;;;;;3.76;84.96;98778.30;1815832;77;25054;-78
2020/12/11 11:56:09;;;;;;;25.13;17.53;;;;;;;3.83;85.02;98776.14;1815710;77;25287;-78
2020/12/11 11:58:35;;;;;;;26.67;18.47;;;;;;;3.88;84.72;98774.91;1815574;77;25326;-78
2020/12/11 12:01:02;;;;;;;26.60;17.93;;;;;;;3.92;84.85;98777.31;1815650;77;25283;-78
2020/12/11 12:03:31;;;;;;;25.47;17.47;;;;;;;3.95;84.61;98775.34;1816055;77;25299;-78
2020/12/11 12:05:58;;;;;;;25.03;18.67;;;;;;;3.97;84.40;98767.00;1815392;77;25670;-79
2020/12/11 12:08:25;;;;;;;22.07;17.13;;;;;;;4.02;84.55;98768.84;1815754;77;25317;-78
2020/12/11 12:10:51;;;;;;;26.87;18.37;;;;;;;4.02;84.64;98768.84;1815715;77;25378;-78
2020/12/11 12:13:18;;;;;;;23.53;17.60;;;;;;;4.09;84.60;98766.67;1815616;77;25267;-78
2020/12/11 12:15:45;;;;;;;23.80;17.23;;;;;;;4.12;84.65;98769.05;1811973;78;25409;-78